sensor_id;sensor_type;location;lat;lon;timestamp;temperature;humidity
46508;DHT22;32223;53.654;10.014;2023-08-06T00:02:05;16.10;99.90
46508;DHT22;32223;53.654;10.014;2023-08-06T00:04:30;16.10;99.90
46508;DHT22;32223;53.654;10.014;2023-08-06T00:06:56;16.00;99.90
46508;DHT22;32223;53.654;10.014;2023-08-06T00:09:21;16.00;99.90
46508;DHT22;32223;53.654;10.014;2023-08-06T00:11:47;16.00;99.90
46508;DHT22;32223;53.654;10.014;2023-08-06T00:14:13;16.00;99.90
46508;DHT22;32223;53.654;10.014;2023-08-06T00:16:43;16.00;99.90
46508;DHT22;32223;53.654;10.014;2023-08-06T00:19:09;16.00;99.90
46508;DHT22;32223;53.654;10.014;2023-08-06T00:21:34;15.90;99.90
46508;DHT22;32223;53.654;10.014;2023-08-06T00:24:00;15.80;99.90
46508;DHT22;32223;53.654;10.014;2023-08-06T00:26:26;15.70;99.90
46508;DHT22;32223;53.654;10.014;2023-08-06T00:28:51;15.70;99.90
46508;DHT22;32223;53.654;10.014;2023-08-06T00:31:17;15.60;99.90
46508;DHT22;32223;53.654;10.014;2023-08-06T00:33:42;15.60;99.90
46508;DHT22;32223;53.654;10.014;2023-08-06T00:36:08;15.60;99.90
46508;DHT22;32223;53.654;10.014;2023-08-06T00:38:33;15.50;99.90
46508;DHT22;32223;53.654;10.014;2023-08-06T00:40:59;15.40;99.90
46508;DHT22;32223;53.654;10.014;2023-08-06T00:43:25;15.40;99.90
46508;DHT22;32223;53.654;10.014;2023-08-06T00:45:50;15.40;99.90
46508;DHT22;32223;53.654;10.014;2023-08-06T00:48:16;15.30;99.90
46508;DHT22;32223;53.654;10.014;2023-08-06T00:50:42;15.30;99.90
46508;DHT22;32223;53.654;10.014;2023-08-06T00:53:08;15.30;99.90
46508;DHT22;32223;53.654;10.014;2023-08-06T00:55:34;15.20;99.90
46508;DHT22;32223;53.654;10.014;2023-08-06T00:58:00;15.30;99.90
46508;DHT22;32223;53.654;10.014;2023-08-06T01:00:27;15.30;99.90
46508;DHT22;32223;53.654;10.014;2023-08-06T01:02:53;15.20;99.90
46508;DHT22;32223;53.654;10.014;2023-08-06T01:05:21;15.20;99.90
46508;DHT22;32223;53.654;10.014;2023-08-06T01:08:16;15.20;99.90
46508;DHT22;32223;53.654;10.014;2023-08-06T01:13:45;15.20;99.90
46508;DHT22;32223;53.654;10.014;2023-08-06T01:16:16;15.10;99.90
46508;DHT22;32223;53.654;10.014;2023-08-06T01:18:42;15.20;99.90
46508;DHT22;32223;53.654;10.014;2023-08-06T01:21:15;15.10;99.90
46508;DHT22;32223;53.654;10.014;2023-08-06T01:23:42;15.20;99.90
46508;DHT22;32223;53.654;10.014;2023-08-06T01:26:34;15.20;99.90
46508;DHT22;32223;53.654;10.014;2023-08-06T01:32:05;15.30;99.90
46508;DHT22;32223;53.654;10.014;2023-08-06T01:34:34;15.20;99.90
46508;DHT22;32223;53.654;10.014;2023-08-06T01:37:01;15.10;99.90
46508;DHT22;32223;53.654;10.014;2023-08-06T01:39:27;15.10;99.90
46508;DHT22;32223;53.654;10.014;2023-08-06T01:41:52;15.20;99.90
46508;DHT22;32223;53.654;10.014;2023-08-06T01:44:18;15.20;99.90
46508;DHT22;32223;53.654;10.014;2023-08-06T01:46:44;15.10;99.90
46508;DHT22;32223;53.654;10.014;2023-08-06T01:49:09;15.10;99.90
46508;DHT22;32223;53.654;10.014;2023-08-06T01:51:35;15.10;99.90
46508;DHT22;32223;53.654;10.014;2023-08-06T01:54:00;15.10;99.90
46508;DHT22;32223;53.654;10.014;2023-08-06T01:56:26;15.10;99.90
46508;DHT22;32223;53.654;10.014;2023-08-06T01:58:51;15.00;99.90
46508;DHT22;32223;53.654;10.014;2023-08-06T02:01:17;15.00;99.90
46508;DHT22;32223;53.654;10.014;2023-08-06T02:03:43;15.00;99.90
46508;DHT22;32223;53.654;10.014;2023-08-06T02:06:08;15.00;99.90
46508;DHT22;32223;53.654;10.014;2023-08-06T02:08:34;15.00;99.90
46508;DHT22;32223;53.654;10.014;2023-08-06T02:10:59;15.00;99.90
46508;DHT22;32223;53.654;10.014;2023-08-06T02:13:25;14.90;99.90
46508;DHT22;32223;53.654;10.014;2023-08-06T02:15:51;14.90;99.90
46508;DHT22;32223;53.654;10.014;2023-08-06T02:18:16;14.90;99.90
46508;DHT22;32223;53.654;10.014;2023-08-06T02:20:43;14.90;99.90
46508;DHT22;32223;53.654;10.014;2023-08-06T02:23:09;14.80;99.90
46508;DHT22;32223;53.654;10.014;2023-08-06T02:25:35;14.80;99.90
46508;DHT22;32223;53.654;10.014;2023-08-06T02:28:00;14.80;99.90
46508;DHT22;32223;53.654;10.014;2023-08-06T02:30:26;14.80;99.90
46508;DHT22;32223;53.654;10.014;2023-08-06T02:32:52;14.70;99.90
46508;DHT22;32223;53.654;10.014;2023-08-06T02:35:18;14.80;99.90
46508;DHT22;32223;53.654;10.014;2023-08-06T02:37:43;14.80;99.90
46508;DHT22;32223;53.654;10.014;2023-08-06T02:40:09;14.70;99.90
46508;DHT22;32223;53.654;10.014;2023-08-06T02:42:35;14.80;99.90
46508;DHT22;32223;53.654;10.014;2023-08-06T02:45:00;14.70;99.90
46508;DHT22;32223;53.654;10.014;2023-08-06T02:47:26;14.70;99.90
46508;DHT22;32223;53.654;10.014;2023-08-06T02:49:52;14.80;99.90
46508;DHT22;32223;53.654;10.014;2023-08-06T02:52:17;14.70;99.90
46508;DHT22;32223;53.654;10.014;2023-08-06T02:54:43;14.70;99.90
46508;DHT22;32223;53.654;10.014;2023-08-06T02:57:09;14.70;99.90
46508;DHT22;32223;53.654;10.014;2023-08-06T02:59:34;14.70;99.90
46508;DHT22;32223;53.654;10.014;2023-08-06T03:02:00;14.60;99.90
46508;DHT22;32223;53.654;10.014;2023-08-06T03:04:25;14.60;99.90
46508;DHT22;32223;53.654;10.014;2023-08-06T03:06:51;14.60;99.90
46508;DHT22;32223;53.654;10.014;2023-08-06T03:09:18;14.60;99.90
46508;DHT22;32223;53.654;10.014;2023-08-06T03:11:43;14.50;99.90
46508;DHT22;32223;53.654;10.014;2023-08-06T03:14:09;14.60;99.90
46508;DHT22;32223;53.654;10.014;2023-08-06T03:16:35;14.60;99.90
46508;DHT22;32223;53.654;10.014;2023-08-06T03:19:00;14.60;99.90
46508;DHT22;32223;53.654;10.014;2023-08-06T03:21:26;14.50;99.90
46508;DHT22;32223;53.654;10.014;2023-08-06T03:23:52;14.50;99.90
46508;DHT22;32223;53.654;10.014;2023-08-06T03:26:17;14.50;99.90
46508;DHT22;32223;53.654;10.014;2023-08-06T03:28:43;14.50;99.90
46508;DHT22;32223;53.654;10.014;2023-08-06T03:31:09;14.50;99.90
46508;DHT22;32223;53.654;10.014;2023-08-06T03:33:34;14.50;99.90
46508;DHT22;32223;53.654;10.014;2023-08-06T03:36:00;14.50;99.90
46508;DHT22;32223;53.654;10.014;2023-08-06T03:38:26;14.50;99.90
46508;DHT22;32223;53.654;10.014;2023-08-06T03:40:51;14.50;99.90
46508;DHT22;32223;53.654;10.014;2023-08-06T03:43:17;14.50;99.90
46508;DHT22;32223;53.654;10.014;2023-08-06T03:45:42;14.60;99.90
46508;DHT22;32223;53.654;10.014;2023-08-06T03:48:08;14.60;99.90
46508;DHT22;32223;53.654;10.014;2023-08-06T03:50:34;14.60;99.90
46508;DHT22;32223;53.654;10.014;2023-08-06T03:53:00;14.50;99.90
46508;DHT22;32223;53.654;10.014;2023-08-06T03:55:26;14.50;99.90
46508;DHT22;32223;53.654;10.014;2023-08-06T03:57:51;14.50;99.90
46508;DHT22;32223;53.654;10.014;2023-08-06T04:00:17;14.50;99.90
46508;DHT22;32223;53.654;10.014;2023-08-06T04:02:43;14.50;99.90
46508;DHT22;32223;53.654;10.014;2023-08-06T04:05:08;14.50;99.90
46508;DHT22;32223;53.654;10.014;2023-08-06T04:07:34;14.50;99.90
46508;DHT22;32223;53.654;10.014;2023-08-06T04:10:04;14.50;99.90
46508;DHT22;32223;53.654;10.014;2023-08-06T04:12:30;14.50;99.90
46508;DHT22;32223;53.654;10.014;2023-08-06T04:14:58;14.50;99.90
46508;DHT22;32223;53.654;10.014;2023-08-06T04:17:24;14.50;99.90
46508;DHT22;32223;53.654;10.014;2023-08-06T04:19:54;14.50;99.90
46508;DHT22;32223;53.654;10.014;2023-08-06T04:22:20;14.50;99.90
46508;DHT22;32223;53.654;10.014;2023-08-06T04:24:46;14.50;99.90
46508;DHT22;32223;53.654;10.014;2023-08-06T04:27:13;14.50;99.90
46508;DHT22;32223;53.654;10.014;2023-08-06T04:29:39;14.50;99.90
46508;DHT22;32223;53.654;10.014;2023-08-06T04:32:07;14.50;99.90
46508;DHT22;32223;53.654;10.014;2023-08-06T04:34:34;14.50;99.90
46508;DHT22;32223;53.654;10.014;2023-08-06T04:37:00;14.50;99.90
46508;DHT22;32223;53.654;10.014;2023-08-06T04:39:26;14.50;99.90
46508;DHT22;32223;53.654;10.014;2023-08-06T04:41:52;14.50;99.90
46508;DHT22;32223;53.654;10.014;2023-08-06T04:44:17;14.50;99.90
46508;DHT22;32223;53.654;10.014;2023-08-06T04:46:43;14.60;99.90
46508;DHT22;32223;53.654;10.014;2023-08-06T04:49:08;14.50;99.90
46508;DHT22;32223;53.654;10.014;2023-08-06T04:51:34;14.60;99.90
46508;DHT22;32223;53.654;10.014;2023-08-06T04:54:00;14.60;99.90
46508;DHT22;32223;53.654;10.014;2023-08-06T04:56:25;14.50;99.90
46508;DHT22;32223;53.654;10.014;2023-08-06T04:58:51;14.50;99.90
46508;DHT22;32223;53.654;10.014;2023-08-06T05:01:17;14.50;99.90
46508;DHT22;32223;53.654;10.014;2023-08-06T05:03:42;14.60;99.90
46508;DHT22;32223;53.654;10.014;2023-08-06T05:06:08;14.60;99.90
46508;DHT22;32223;53.654;10.014;2023-08-06T05:08:33;14.50;99.90
46508;DHT22;32223;53.654;10.014;2023-08-06T05:10:59;14.60;99.90
46508;DHT22;32223;53.654;10.014;2023-08-06T05:13:25;14.60;99.90
46508;DHT22;32223;53.654;10.014;2023-08-06T05:15:53;14.60;99.90
46508;DHT22;32223;53.654;10.014;2023-08-06T05:18:18;14.60;99.90
46508;DHT22;32223;53.654;10.014;2023-08-06T05:20:44;14.60;99.90
46508;DHT22;32223;53.654;10.014;2023-08-06T05:23:10;14.60;99.90
46508;DHT22;32223;53.654;10.014;2023-08-06T05:25:39;14.60;99.90
46508;DHT22;32223;53.654;10.014;2023-08-06T05:28:04;14.60;99.90
46508;DHT22;32223;53.654;10.014;2023-08-06T05:30:30;14.60;99.90
46508;DHT22;32223;53.654;10.014;2023-08-06T05:32:56;14.60;99.90
46508;DHT22;32223;53.654;10.014;2023-08-06T05:35:22;14.70;99.90
46508;DHT22;32223;53.654;10.014;2023-08-06T05:37:49;14.70;99.90
46508;DHT22;32223;53.654;10.014;2023-08-06T05:40:15;14.70;99.90
46508;DHT22;32223;53.654;10.014;2023-08-06T05:42:41;14.80;99.90
46508;DHT22;32223;53.654;10.014;2023-08-06T05:45:07;14.80;99.90
46508;DHT22;32223;53.654;10.014;2023-08-06T05:47:33;14.80;99.90
46508;DHT22;32223;53.654;10.014;2023-08-06T05:49:58;14.90;99.90
46508;DHT22;32223;53.654;10.014;2023-08-06T05:52:24;14.90;99.90
46508;DHT22;32223;53.654;10.014;2023-08-06T05:54:50;15.00;99.90
46508;DHT22;32223;53.654;10.014;2023-08-06T05:57:16;15.00;99.90
46508;DHT22;32223;53.654;10.014;2023-08-06T05:59:42;15.00;99.90
46508;DHT22;32223;53.654;10.014;2023-08-06T06:02:07;15.10;99.90
46508;DHT22;32223;53.654;10.014;2023-08-06T06:04:33;15.10;99.90
46508;DHT22;32223;53.654;10.014;2023-08-06T06:06:59;15.10;99.90
46508;DHT22;32223;53.654;10.014;2023-08-06T06:09:24;15.20;99.90
46508;DHT22;32223;53.654;10.014;2023-08-06T06:11:50;15.10;99.90
46508;DHT22;32223;53.654;10.014;2023-08-06T06:14:17;15.20;99.90
46508;DHT22;32223;53.654;10.014;2023-08-06T06:16:42;15.20;99.90
46508;DHT22;32223;53.654;10.014;2023-08-06T06:19:08;15.20;99.90
46508;DHT22;32223;53.654;10.014;2023-08-06T06:21:34;15.30;99.90
46508;DHT22;32223;53.654;10.014;2023-08-06T06:23:59;15.30;99.90
46508;DHT22;32223;53.654;10.014;2023-08-06T06:26:25;15.30;99.90
46508;DHT22;32223;53.654;10.014;2023-08-06T06:28:50;15.40;99.90
46508;DHT22;32223;53.654;10.014;2023-08-06T06:31:16;15.40;99.90
46508;DHT22;32223;53.654;10.014;2023-08-06T06:33:41;15.50;99.90
46508;DHT22;32223;53.654;10.014;2023-08-06T06:36:07;15.50;99.90
46508;DHT22;32223;53.654;10.014;2023-08-06T06:38:33;15.60;99.90
46508;DHT22;32223;53.654;10.014;2023-08-06T06:40:59;15.70;99.90
46508;DHT22;32223;53.654;10.014;2023-08-06T06:43:26;15.80;99.90
46508;DHT22;32223;53.654;10.014;2023-08-06T06:45:58;15.90;99.90
46508;DHT22;32223;53.654;10.014;2023-08-06T06:48:29;16.00;99.90
46508;DHT22;32223;53.654;10.014;2023-08-06T06:50:55;16.00;99.90
46508;DHT22;32223;53.654;10.014;2023-08-06T06:53:21;16.10;99.90
46508;DHT22;32223;53.654;10.014;2023-08-06T06:55:55;16.10;99.90
46508;DHT22;32223;53.654;10.014;2023-08-06T06:58:21;16.10;99.90
46508;DHT22;32223;53.654;10.014;2023-08-06T07:00:48;16.10;99.90
46508;DHT22;32223;53.654;10.014;2023-08-06T07:03:16;16.00;99.90
46508;DHT22;32223;53.654;10.014;2023-08-06T07:05:43;16.00;99.90
46508;DHT22;32223;53.654;10.014;2023-08-06T07:08:09;16.00;99.90
46508;DHT22;32223;53.654;10.014;2023-08-06T07:10:35;16.00;99.90
46508;DHT22;32223;53.654;10.014;2023-08-06T07:13:00;16.00;99.90
46508;DHT22;32223;53.654;10.014;2023-08-06T07:15:26;16.10;99.90
46508;DHT22;32223;53.654;10.014;2023-08-06T07:17:52;16.10;99.90
46508;DHT22;32223;53.654;10.014;2023-08-06T07:20:17;16.10;99.90
46508;DHT22;32223;53.654;10.014;2023-08-06T07:22:44;16.00;99.90
46508;DHT22;32223;53.654;10.014;2023-08-06T07:25:10;15.90;99.90
46508;DHT22;32223;53.654;10.014;2023-08-06T07:27:36;15.90;99.90
46508;DHT22;32223;53.654;10.014;2023-08-06T07:30:02;16.00;99.90
46508;DHT22;32223;53.654;10.014;2023-08-06T07:32:27;15.90;99.90
46508;DHT22;32223;53.654;10.014;2023-08-06T07:34:53;16.10;99.90
46508;DHT22;32223;53.654;10.014;2023-08-06T07:37:24;16.30;99.90
46508;DHT22;32223;53.654;10.014;2023-08-06T07:39:50;16.30;99.90
46508;DHT22;32223;53.654;10.014;2023-08-06T07:42:15;16.40;99.90
46508;DHT22;32223;53.654;10.014;2023-08-06T07:44:41;16.40;99.90
46508;DHT22;32223;53.654;10.014;2023-08-06T07:47:07;16.40;99.90
46508;DHT22;32223;53.654;10.014;2023-08-06T07:49:33;16.40;99.90
46508;DHT22;32223;53.654;10.014;2023-08-06T07:51:58;16.50;99.90
46508;DHT22;32223;53.654;10.014;2023-08-06T07:54:24;16.50;99.90
46508;DHT22;32223;53.654;10.014;2023-08-06T07:56:50;16.60;99.90
46508;DHT22;32223;53.654;10.014;2023-08-06T07:59:15;16.70;99.90
46508;DHT22;32223;53.654;10.014;2023-08-06T08:01:42;16.80;99.90
46508;DHT22;32223;53.654;10.014;2023-08-06T08:04:07;16.80;99.90
46508;DHT22;32223;53.654;10.014;2023-08-06T08:06:33;16.80;99.90
46508;DHT22;32223;53.654;10.014;2023-08-06T08:08:59;16.70;99.90
46508;DHT22;32223;53.654;10.014;2023-08-06T08:11:26;16.80;99.90
46508;DHT22;32223;53.654;10.014;2023-08-06T08:13:51;16.70;99.90
46508;DHT22;32223;53.654;10.014;2023-08-06T08:16:17;16.70;99.90
46508;DHT22;32223;53.654;10.014;2023-08-06T08:18:42;16.60;99.90
46508;DHT22;32223;53.654;10.014;2023-08-06T08:21:08;16.50;99.90
46508;DHT22;32223;53.654;10.014;2023-08-06T08:23:34;16.50;99.90
46508;DHT22;32223;53.654;10.014;2023-08-06T08:26:00;16.40;99.90
46508;DHT22;32223;53.654;10.014;2023-08-06T08:28:27;16.40;99.90
46508;DHT22;32223;53.654;10.014;2023-08-06T08:30:53;16.40;99.90
46508;DHT22;32223;53.654;10.014;2023-08-06T08:33:18;16.50;99.90
46508;DHT22;32223;53.654;10.014;2023-08-06T08:35:45;16.60;99.90
46508;DHT22;32223;53.654;10.014;2023-08-06T08:38:11;16.70;99.90
46508;DHT22;32223;53.654;10.014;2023-08-06T08:40:41;16.80;99.90
46508;DHT22;32223;53.654;10.014;2023-08-06T08:43:09;16.80;99.90
46508;DHT22;32223;53.654;10.014;2023-08-06T08:45:35;16.90;99.90
46508;DHT22;32223;53.654;10.014;2023-08-06T08:48:04;16.90;99.90
46508;DHT22;32223;53.654;10.014;2023-08-06T08:50:30;16.90;99.90
46508;DHT22;32223;53.654;10.014;2023-08-06T08:52:56;16.90;99.90
46508;DHT22;32223;53.654;10.014;2023-08-06T08:55:22;16.90;99.90
46508;DHT22;32223;53.654;10.014;2023-08-06T08:57:49;17.00;99.90
46508;DHT22;32223;53.654;10.014;2023-08-06T09:00:15;17.00;99.90
46508;DHT22;32223;53.654;10.014;2023-08-06T09:02:42;17.00;99.90
46508;DHT22;32223;53.654;10.014;2023-08-06T09:05:09;16.90;99.90
46508;DHT22;32223;53.654;10.014;2023-08-06T09:07:41;16.80;99.90
46508;DHT22;32223;53.654;10.014;2023-08-06T09:10:10;16.80;99.90
46508;DHT22;32223;53.654;10.014;2023-08-06T09:12:36;16.70;99.90
46508;DHT22;32223;53.654;10.014;2023-08-06T09:15:03;16.70;99.90
46508;DHT22;32223;53.654;10.014;2023-08-06T09:17:28;16.70;99.90
46508;DHT22;32223;53.654;10.014;2023-08-06T09:19:54;16.60;99.90
46508;DHT22;32223;53.654;10.014;2023-08-06T09:22:20;16.60;99.90
46508;DHT22;32223;53.654;10.014;2023-08-06T09:24:46;16.60;99.90
46508;DHT22;32223;53.654;10.014;2023-08-06T09:27:12;16.50;99.90
46508;DHT22;32223;53.654;10.014;2023-08-06T09:29:42;16.50;99.90
46508;DHT22;32223;53.654;10.014;2023-08-06T09:32:08;16.40;99.90
46508;DHT22;32223;53.654;10.014;2023-08-06T09:34:34;16.50;99.90
46508;DHT22;32223;53.654;10.014;2023-08-06T09:36:59;16.50;99.90
46508;DHT22;32223;53.654;10.014;2023-08-06T09:39:27;16.50;99.90
46508;DHT22;32223;53.654;10.014;2023-08-06T09:42:01;16.60;99.90
46508;DHT22;32223;53.654;10.014;2023-08-06T09:44:28;16.60;99.90
46508;DHT22;32223;53.654;10.014;2023-08-06T09:46:56;16.60;99.90
46508;DHT22;32223;53.654;10.014;2023-08-06T09:49:39;16.60;99.90
46508;DHT22;32223;53.654;10.014;2023-08-06T09:52:11;16.60;99.90
46508;DHT22;32223;53.654;10.014;2023-08-06T09:54:37;16.60;99.90
46508;DHT22;32223;53.654;10.014;2023-08-06T09:57:03;16.50;99.90
46508;DHT22;32223;53.654;10.014;2023-08-06T09:59:30;16.50;99.90
46508;DHT22;32223;53.654;10.014;2023-08-06T10:01:57;16.50;99.90
46508;DHT22;32223;53.654;10.014;2023-08-06T10:04:24;16.40;99.90
46508;DHT22;32223;53.654;10.014;2023-08-06T10:06:49;16.40;99.90
46508;DHT22;32223;53.654;10.014;2023-08-06T10:09:15;16.40;99.90
46508;DHT22;32223;53.654;10.014;2023-08-06T10:11:42;16.40;99.90
46508;DHT22;32223;53.654;10.014;2023-08-06T10:14:16;16.40;99.90
46508;DHT22;32223;53.654;10.014;2023-08-06T10:16:44;16.40;99.90
46508;DHT22;32223;53.654;10.014;2023-08-06T10:19:11;16.40;99.90
46508;DHT22;32223;53.654;10.014;2023-08-06T10:21:38;16.40;99.90
46508;DHT22;32223;53.654;10.014;2023-08-06T10:24:07;16.40;99.90
46508;DHT22;32223;53.654;10.014;2023-08-06T10:26:36;16.40;99.90
46508;DHT22;32223;53.654;10.014;2023-08-06T10:29:02;16.40;99.90
46508;DHT22;32223;53.654;10.014;2023-08-06T10:31:54;16.50;99.90
46508;DHT22;32223;53.654;10.014;2023-08-06T10:34:22;16.50;99.90
46508;DHT22;32223;53.654;10.014;2023-08-06T10:36:48;16.50;99.90
46508;DHT22;32223;53.654;10.014;2023-08-06T10:39:14;16.50;99.90
46508;DHT22;32223;53.654;10.014;2023-08-06T10:41:42;16.60;99.90
46508;DHT22;32223;53.654;10.014;2023-08-06T10:44:10;16.60;99.90
46508;DHT22;32223;53.654;10.014;2023-08-06T10:46:37;16.60;99.90
46508;DHT22;32223;53.654;10.014;2023-08-06T10:49:03;16.60;99.90
46508;DHT22;32223;53.654;10.014;2023-08-06T10:51:29;16.60;99.90
46508;DHT22;32223;53.654;10.014;2023-08-06T10:53:55;16.70;99.90
46508;DHT22;32223;53.654;10.014;2023-08-06T10:56:22;16.70;99.90
46508;DHT22;32223;53.654;10.014;2023-08-06T10:58:49;16.80;99.90
46508;DHT22;32223;53.654;10.014;2023-08-06T11:01:15;16.80;99.90
46508;DHT22;32223;53.654;10.014;2023-08-06T11:03:42;16.80;99.90
46508;DHT22;32223;53.654;10.014;2023-08-06T11:06:09;16.80;99.90
46508;DHT22;32223;53.654;10.014;2023-08-06T11:08:37;16.80;99.90
46508;DHT22;32223;53.654;10.014;2023-08-06T11:11:14;16.90;99.90
46508;DHT22;32223;53.654;10.014;2023-08-06T11:13:44;16.90;99.90
46508;DHT22;32223;53.654;10.014;2023-08-06T11:16:13;17.00;99.90
46508;DHT22;32223;53.654;10.014;2023-08-06T11:18:40;17.10;99.90
46508;DHT22;32223;53.654;10.014;2023-08-06T11:21:07;17.20;99.90
46508;DHT22;32223;53.654;10.014;2023-08-06T11:23:34;17.20;99.90
46508;DHT22;32223;53.654;10.014;2023-08-06T11:26:00;17.20;99.90
46508;DHT22;32223;53.654;10.014;2023-08-06T11:28:26;17.30;99.90
46508;DHT22;32223;53.654;10.014;2023-08-06T11:30:52;17.30;99.90
46508;DHT22;32223;53.654;10.014;2023-08-06T11:33:22;17.40;99.90
46508;DHT22;32223;53.654;10.014;2023-08-06T11:35:48;17.40;99.90
46508;DHT22;32223;53.654;10.014;2023-08-06T11:38:14;17.50;99.90
46508;DHT22;32223;53.654;10.014;2023-08-06T11:40:47;17.50;99.90
46508;DHT22;32223;53.654;10.014;2023-08-06T11:43:13;17.50;99.90
46508;DHT22;32223;53.654;10.014;2023-08-06T11:45:40;17.60;99.90
46508;DHT22;32223;53.654;10.014;2023-08-06T11:48:07;17.60;99.90
46508;DHT22;32223;53.654;10.014;2023-08-06T11:50:37;17.60;99.90
46508;DHT22;32223;53.654;10.014;2023-08-06T11:53:04;17.60;99.90
46508;DHT22;32223;53.654;10.014;2023-08-06T11:55:30;17.70;99.90
46508;DHT22;32223;53.654;10.014;2023-08-06T11:57:56;17.80;99.90
46508;DHT22;32223;53.654;10.014;2023-08-06T12:00:26;17.90;99.90
46508;DHT22;32223;53.654;10.014;2023-08-06T12:02:52;18.00;99.90
46508;DHT22;32223;53.654;10.014;2023-08-06T12:05:19;18.10;99.90
46508;DHT22;32223;53.654;10.014;2023-08-06T12:07:56;18.20;99.90
46508;DHT22;32223;53.654;10.014;2023-08-06T12:10:26;18.20;99.90
46508;DHT22;32223;53.654;10.014;2023-08-06T12:12:51;18.40;99.90
46508;DHT22;32223;53.654;10.014;2023-08-06T12:15:18;18.40;99.90
46508;DHT22;32223;53.654;10.014;2023-08-06T12:17:43;18.50;99.90
46508;DHT22;32223;53.654;10.014;2023-08-06T12:20:09;18.50;99.90
46508;DHT22;32223;53.654;10.014;2023-08-06T12:22:36;18.60;99.90
46508;DHT22;32223;53.654;10.014;2023-08-06T12:25:05;18.60;99.90
46508;DHT22;32223;53.654;10.014;2023-08-06T12:27:34;18.60;99.90
46508;DHT22;32223;53.654;10.014;2023-08-06T12:30:00;18.70;99.90
46508;DHT22;32223;53.654;10.014;2023-08-06T12:32:26;18.70;99.90
46508;DHT22;32223;53.654;10.014;2023-08-06T12:34:51;18.70;99.90
46508;DHT22;32223;53.654;10.014;2023-08-06T12:37:17;18.80;99.90
46508;DHT22;32223;53.654;10.014;2023-08-06T12:39:43;18.90;99.90
46508;DHT22;32223;53.654;10.014;2023-08-06T12:42:08;18.90;99.90
46508;DHT22;32223;53.654;10.014;2023-08-06T12:44:34;18.90;99.90
46508;DHT22;32223;53.654;10.014;2023-08-06T12:47:00;18.90;99.90
46508;DHT22;32223;53.654;10.014;2023-08-06T12:49:26;18.90;99.90
46508;DHT22;32223;53.654;10.014;2023-08-06T12:51:53;19.00;99.90
46508;DHT22;32223;53.654;10.014;2023-08-06T12:54:20;19.00;99.90
46508;DHT22;32223;53.654;10.014;2023-08-06T12:56:46;19.10;99.90
46508;DHT22;32223;53.654;10.014;2023-08-06T12:59:14;19.30;99.90
46508;DHT22;32223;53.654;10.014;2023-08-06T13:01:40;19.50;99.90
46508;DHT22;32223;53.654;10.014;2023-08-06T13:04:06;19.50;99.90
46508;DHT22;32223;53.654;10.014;2023-08-06T13:06:32;19.50;99.90
46508;DHT22;32223;53.654;10.014;2023-08-06T13:09:07;19.60;99.90
46508;DHT22;32223;53.654;10.014;2023-08-06T13:11:34;19.80;99.90
46508;DHT22;32223;53.654;10.014;2023-08-06T13:14:07;20.00;99.90
46508;DHT22;32223;53.654;10.014;2023-08-06T13:16:34;20.30;99.90
46508;DHT22;32223;53.654;10.014;2023-08-06T13:19:01;20.50;99.90
46508;DHT22;32223;53.654;10.014;2023-08-06T13:24:12;20.80;99.90
46508;DHT22;32223;53.654;10.014;2023-08-06T13:26:38;20.90;99.90
46508;DHT22;32223;53.654;10.014;2023-08-06T13:29:04;21.10;99.90
46508;DHT22;32223;53.654;10.014;2023-08-06T13:31:32;21.10;99.90
46508;DHT22;32223;53.654;10.014;2023-08-06T13:33:58;21.20;99.90
46508;DHT22;32223;53.654;10.014;2023-08-06T13:36:25;21.30;99.90
46508;DHT22;32223;53.654;10.014;2023-08-06T13:38:51;21.30;99.90
46508;DHT22;32223;53.654;10.014;2023-08-06T13:41:17;21.20;99.90
46508;DHT22;32223;53.654;10.014;2023-08-06T13:43:43;21.10;99.90
46508;DHT22;32223;53.654;10.014;2023-08-06T13:46:09;21.10;99.90
46508;DHT22;32223;53.654;10.014;2023-08-06T13:48:39;21.00;99.90
46508;DHT22;32223;53.654;10.014;2023-08-06T13:51:04;20.80;99.90
46508;DHT22;32223;53.654;10.014;2023-08-06T13:53:30;20.60;99.90
46508;DHT22;32223;53.654;10.014;2023-08-06T13:55:56;20.30;99.90
46508;DHT22;32223;53.654;10.014;2023-08-06T13:58:23;20.30;99.90
46508;DHT22;32223;53.654;10.014;2023-08-06T14:00:49;20.30;99.90
46508;DHT22;32223;53.654;10.014;2023-08-06T14:03:14;20.20;99.90
46508;DHT22;32223;53.654;10.014;2023-08-06T14:05:41;20.10;99.90
46508;DHT22;32223;53.654;10.014;2023-08-06T14:08:06;19.90;99.90
46508;DHT22;32223;53.654;10.014;2023-08-06T14:10:32;19.80;99.90
46508;DHT22;32223;53.654;10.014;2023-08-06T14:12:58;19.60;99.90
46508;DHT22;32223;53.654;10.014;2023-08-06T14:15:23;19.50;99.90
46508;DHT22;32223;53.654;10.014;2023-08-06T14:17:49;19.40;99.90
46508;DHT22;32223;53.654;10.014;2023-08-06T14:20:14;19.40;99.90
46508;DHT22;32223;53.654;10.014;2023-08-06T14:22:40;19.20;99.90
46508;DHT22;32223;53.654;10.014;2023-08-06T14:25:06;19.10;99.90
46508;DHT22;32223;53.654;10.014;2023-08-06T14:27:32;19.10;99.90
46508;DHT22;32223;53.654;10.014;2023-08-06T14:29:57;18.90;99.90
46508;DHT22;32223;53.654;10.014;2023-08-06T14:32:23;18.90;99.90
46508;DHT22;32223;53.654;10.014;2023-08-06T14:34:49;18.90;99.90
46508;DHT22;32223;53.654;10.014;2023-08-06T14:37:15;18.80;99.90
46508;DHT22;32223;53.654;10.014;2023-08-06T14:39:40;18.70;99.90
46508;DHT22;32223;53.654;10.014;2023-08-06T14:42:06;18.60;99.90
46508;DHT22;32223;53.654;10.014;2023-08-06T14:44:32;18.50;99.90
46508;DHT22;32223;53.654;10.014;2023-08-06T14:46:57;18.50;99.90
46508;DHT22;32223;53.654;10.014;2023-08-06T14:49:23;18.60;99.90
46508;DHT22;32223;53.654;10.014;2023-08-06T14:51:49;18.60;99.90
46508;DHT22;32223;53.654;10.014;2023-08-06T14:54:15;18.60;99.90
46508;DHT22;32223;53.654;10.014;2023-08-06T14:56:40;18.70;99.90
46508;DHT22;32223;53.654;10.014;2023-08-06T14:59:06;18.60;99.90
46508;DHT22;32223;53.654;10.014;2023-08-06T15:01:32;18.70;99.90
46508;DHT22;32223;53.654;10.014;2023-08-06T15:03:58;18.60;99.90
46508;DHT22;32223;53.654;10.014;2023-08-06T15:06:24;18.70;99.90
46508;DHT22;32223;53.654;10.014;2023-08-06T15:08:49;18.60;99.90
46508;DHT22;32223;53.654;10.014;2023-08-06T15:11:15;18.50;99.90
46508;DHT22;32223;53.654;10.014;2023-08-06T15:13:41;18.40;99.90
46508;DHT22;32223;53.654;10.014;2023-08-06T15:16:06;18.50;99.90
46508;DHT22;32223;53.654;10.014;2023-08-06T15:18:32;18.50;99.90
46508;DHT22;32223;53.654;10.014;2023-08-06T15:20:58;18.50;99.90